Time;durP1;ratioP1;P1;durP2;ratioP2;P2;SDS_P1;SDS_P2;PMS_P1;PMS_P2;Temp;Humidity;BMP_temperature;BMP_pressure;BME280_temperature;BME280_humidity;BME280_pressure;Samples;Min_cycle;Max_cycle;Signal;HPM_P1;HPM_P2
2022/04/22 00:02:13;;;;;;;12.18;7.18;;;9.10;99.90;;;;;;7312986;32;20138;-71
2022/04/22 00:06:15;;;;;;;8.70;6.97;;;9.10;99.90;;;;;;7312785;32;20129;-71
2022/04/22 00:10:17;;;;;;;10.18;7.20;;;9.10;99.90;;;;;;7306941;32;20124;-71
2022/04/22 00:14:18;;;;;;;9.63;7.18;;;9.00;99.90;;;;;;7315733;32;20112;-71
2022/04/22 00:18:21;;;;;;;11.95;7.45;;;9.00;99.90;;;;;;7309214;32;20207;-71
2022/04/22 00:22:23;;;;;;;11.10;6.85;;;9.00;99.90;;;;;;7312579;32;20505;-71
2022/04/22 00:26:25;;;;;;;12.10;7.60;;;8.90;99.90;;;;;;7311214;32;20149;-71
2022/04/22 00:30:29;;;;;;;11.27;7.40;;;8.90;99.90;;;;;;7311314;32;20416;-71
2022/04/22 00:34:31;;;;;;;9.73;8.02;;;8.90;99.90;;;;;;7314031;32;20283;-71
2022/04/22 00:38:34;;;;;;;11.48;7.85;;;8.90;99.90;;;;;;7314126;32;20198;-70
2022/04/22 00:42:36;;;;;;;10.63;8.05;;;8.90;99.90;;;;;;7315715;32;20580;-72
2022/04/22 00:46:38;;;;;;;10.93;8.25;;;8.90;99.90;;;;;;7313015;32;20536;-71
2022/04/22 00:50:40;;;;;;;9.57;7.97;;;8.90;99.90;;;;;;7310991;32;20174;-70
2022/04/22 00:54:42;;;;;;;10.40;8.07;;;8.80;99.90;;;;;;7312342;32;20615;-70
2022/04/22 00:58:47;;;;;;;10.48;7.40;;;8.80;99.90;;;;;;7310445;32;20149;-71
2022/04/22 01:02:48;;;;;;;15.90;8.32;;;8.80;99.90;;;;;;7311524;32;20296;-71
2022/04/22 01:11:11;;;;;;;10.45;8.90;;;8.70;99.90;;;;;;7311958;32;20245;-71
2022/04/22 01:15:13;;;;;;;10.45;8.27;;;8.70;99.90;;;;;;7310640;32;20112;-70
2022/04/22 01:19:14;;;;;;;12.50;8.43;;;8.70;99.90;;;;;;7307775;32;20115;-68
2022/04/22 01:23:16;;;;;;;8.80;7.72;;;8.70;99.90;;;;;;7307254;32;20411;-70
2022/04/22 01:27:20;;;;;;;10.13;7.60;;;8.60;99.90;;;;;;7308492;32;20306;-70
2022/04/22 01:31:22;;;;;;;12.18;8.20;;;8.50;99.90;;;;;;7314428;32;20678;-70
2022/04/22 01:35:25;;;;;;;10.98;7.53;;;8.50;99.90;;;;;;7314688;32;20225;-72
2022/04/22 01:39:29;;;;;;;12.60;8.90;;;8.40;99.90;;;;;;7315336;32;20131;-71
2022/04/22 01:43:30;;;;;;;10.40;8.02;;;8.40;99.90;;;;;;7312951;32;20245;-70
2022/04/22 01:47:32;;;;;;;11.35;8.35;;;8.30;99.90;;;;;;7318877;32;20216;-71
2022/04/22 01:51:34;;;;;;;10.38;7.70;;;8.30;99.90;;;;;;7317630;32;20107;-71
2022/04/22 01:55:36;;;;;;;10.50;8.20;;;8.20;99.90;;;;;;7317262;32;20211;-71
2022/04/22 01:59:38;;;;;;;10.50;7.65;;;8.10;99.90;;;;;;7312005;32;20111;-70
2022/04/22 02:03:39;;;;;;;12.23;8.52;;;8.00;99.90;;;;;;7313081;32;20341;-71
2022/04/22 02:07:41;;;;;;;11.55;7.95;;;7.80;99.90;;;;;;7315827;32;20225;-70
2022/04/22 02:11:43;;;;;;;10.23;7.93;;;7.70;99.90;;;;;;7317879;32;20120;-71
2022/04/22 02:15:45;;;;;;;10.68;7.50;;;7.60;99.90;;;;;;7315799;32;20508;-70
2022/04/22 02:19:46;;;;;;;9.05;7.10;;;7.40;99.90;;;;;;7305038;32;20111;-69
2022/04/22 02:23:48;;;;;;;9.30;7.80;;;7.30;99.90;;;;;;7314627;32;20222;-70
2022/04/22 02:32:10;;;;;;;9.40;7.50;;;7.10;99.90;;;;;;7312815;32;20434;-70
2022/04/22 02:36:15;;;;;;;13.65;8.43;;;7.10;99.90;;;;;;7314460;32;20565;-71
2022/04/22 02:49:00;;;;;;;13.00;9.13;;;7.00;99.90;;;;;;7308939;32;20238;-71
2022/04/22 02:53:01;;;;;;;16.92;11.07;;;7.00;99.90;;;;;;7313401;32;20285;-72
2022/04/22 02:57:04;;;;;;;17.52;11.90;;;7.10;99.90;;;;;;7316068;32;20112;-71
2022/04/22 03:01:05;;;;;;;15.43;11.60;;;7.30;99.90;;;;;;7314639;32;20130;-70
2022/04/22 03:05:08;;;;;;;16.92;12.15;;;7.30;99.90;;;;;;7311496;32;20115;-71
2022/04/22 03:09:10;;;;;;;17.40;12.40;;;7.40;99.90;;;;;;7315728;32;20152;-71
2022/04/22 03:13:12;;;;;;;15.77;12.37;;;7.40;99.90;;;;;;7304943;32;20116;-71
2022/04/22 03:17:13;;;;;;;18.17;12.30;;;7.50;99.90;;;;;;7311339;32;20153;-71
2022/04/22 03:21:15;;;;;;;16.23;13.02;;;7.60;99.90;;;;;;7311705;32;20249;-72
2022/04/22 03:25:19;;;;;;;23.02;14.15;;;7.70;99.90;;;;;;7311805;32;20654;-71
2022/04/22 03:29:21;;;;;;;20.75;14.87;;;7.70;99.90;;;;;;7312241;32;20195;-72
2022/04/22 03:33:22;;;;;;;22.92;14.93;;;7.80;99.90;;;;;;7314280;32;20527;-68
2022/04/22 03:37:24;;;;;;;20.33;14.85;;;7.90;99.90;;;;;;7314119;32;20126;-70
2022/04/22 03:41:26;;;;;;;21.95;15.15;;;7.90;99.90;;;;;;7312178;32;20111;-70
2022/04/22 03:45:28;;;;;;;22.58;14.48;;;7.90;99.90;;;;;;7308041;32;20142;-70
2022/04/22 03:49:33;;;;;;;20.20;14.68;;;8.00;99.90;;;;;;7317657;32;20175;-70
2022/04/22 03:53:37;;;;;;;23.27;14.43;;;8.00;99.90;;;;;;7314407;32;20543;-71
2022/04/22 04:01:59;;;;;;;23.87;15.98;;;8.00;99.90;;;;;;7309799;32;20802;-71
2022/04/22 04:06:01;;;;;;;21.15;15.40;;;8.10;99.90;;;;;;7308998;32;20214;-71
2022/04/22 04:18:44;;;;;;;21.52;15.35;;;8.10;99.90;;;;;;7312500;32;20120;-71
2022/04/22 04:27:25;;;;;;;23.12;17.15;;;8.10;99.90;;;;;;7212154;32;20124;-71
2022/04/22 04:31:28;;;;;;;22.17;15.57;;;8.00;99.90;;;;;;7256375;32;20221;-71
2022/04/22 04:35:30;;;;;;;26.12;16.45;;;8.00;99.90;;;;;;7328715;32;20322;-72
2022/04/22 04:39:32;;;;;;;23.20;15.85;;;8.10;99.90;;;;;;7307270;32;20209;-72
2022/04/22 04:43:35;;;;;;;24.65;16.52;;;8.10;99.90;;;;;;7320475;32;20463;-72
2022/04/22 04:47:40;;;;;;;25.55;17.08;;;8.00;99.90;;;;;;7311632;32;20585;-71
2022/04/22 04:51:42;;;;;;;25.92;17.60;;;8.10;99.90;;;;;;7315237;32;20119;-73
2022/04/22 04:55:44;;;;;;;25.73;17.52;;;8.10;99.90;;;;;;7323223;32;20115;-73
2022/04/22 04:59:46;;;;;;;23.83;16.67;;;8.10;99.90;;;;;;7317189;32;20494;-71
2022/04/22 05:03:47;;;;;;;27.02;17.58;;;8.20;99.90;;;;;;7315909;32;20142;-71
2022/04/22 05:07:57;;;;;;;28.05;19.02;;;8.30;99.90;;;;;;7313652;32;22385;-72
2022/04/22 05:11:58;;;;;;;25.02;17.85;;;8.20;99.90;;;;;;7321992;32;20709;-72
2022/04/22 05:16:00;;;;;;;27.17;17.85;;;8.30;99.90;;;;;;7316489;32;20202;-73
2022/04/22 05:20:02;;;;;;;25.33;16.92;;;8.40;99.90;;;;;;7316072;32;20170;-72
2022/04/22 05:24:04;;;;;;;28.50;18.15;;;8.40;99.90;;;;;;7325195;32;20115;-71
2022/04/22 05:28:07;;;;;;;26.60;18.35;;;8.50;99.90;;;;;;7320843;32;20121;-72
2022/04/22 05:36:29;;;;;;;29.55;18.25;;;8.60;99.90;;;;;;7314999;32;20130;-73
2022/04/22 05:40:36;;;;;;;23.73;17.00;;;8.70;99.90;;;;;;7316098;32;20112;-72
2022/04/22 05:44:38;;;;;;;24.92;17.77;;;8.70;99.90;;;;;;7318237;32;20146;-75
2022/04/22 05:48:39;;;;;;;24.87;18.60;;;8.80;99.90;;;;;;7307793;32;20762;-72
2022/04/22 05:52:43;;;;;;;24.73;17.95;;;8.90;99.90;;;;;;7316176;32;20125;-69
2022/04/22 05:56:44;;;;;;;25.52;18.83;;;9.00;99.90;;;;;;7317356;32;20891;-69
2022/04/22 06:00:47;;;;;;;27.55;19.48;;;9.10;99.90;;;;;;7318306;32;20447;-71
2022/04/22 06:04:53;;;;;;;30.45;19.58;;;9.10;99.90;;;;;;7317501;32;20472;-73
2022/04/22 06:13:15;;;;;;;28.23;19.42;;;8.90;99.90;;;;;;7311007;32;20122;-67
2022/04/22 06:17:17;;;;;;;30.48;20.75;;;8.90;99.90;;;;;;7307207;32;20639;-70
2022/04/22 06:21:18;;;;;;;27.13;20.23;;;9.00;99.90;;;;;;7307383;32;20194;-71
2022/04/22 06:25:20;;;;;;;27.30;20.77;;;9.00;99.90;;;;;;7315196;32;20484;-73
2022/04/22 06:29:22;;;;;;;30.58;21.23;;;9.00;99.90;;;;;;7314110;32;20254;-70
2022/04/22 06:33:24;;;;;;;29.23;21.45;;;9.10;99.90;;;;;;7313889;32;20111;-72
2022/04/22 06:37:32;;;;;;;30.12;21.10;;;9.30;99.90;;;;;;7314155;32;20115;-71
2022/04/22 06:45:55;;;;;;;29.50;20.48;;;9.50;99.90;;;;;;7316754;32;20158;-71
2022/04/22 06:49:57;;;;;;;26.50;20.15;;;9.50;99.90;;;;;;7319172;32;20633;-73
2022/04/22 06:53:59;;;;;;;28.17;21.40;;;9.70;99.90;;;;;;7312764;32;20198;-72
2022/04/22 06:58:02;;;;;;;29.20;20.70;;;9.80;99.90;;;;;;7308302;32;20115;-71
2022/04/22 07:02:04;;;;;;;27.87;21.08;;;9.90;99.90;;;;;;7315648;32;20253;-72
2022/04/22 07:06:06;;;;;;;27.17;19.92;;;10.00;99.90;;;;;;7313075;32;20297;-70
2022/04/22 07:10:08;;;;;;;24.40;19.87;;;10.20;99.90;;;;;;7314208;32;20187;-70
2022/04/22 07:14:10;;;;;;;24.98;19.40;;;10.30;99.90;;;;;;7312273;32;20190;-72
2022/04/22 07:18:13;;;;;;;23.30;18.17;;;10.40;99.90;;;;;;7309951;32;20845;-72
2022/04/22 07:22:15;;;;;;;25.92;19.42;;;10.50;99.90;;;;;;7317903;32;20114;-70
2022/04/22 07:26:18;;;;;;;22.30;18.85;;;10.60;99.90;;;;;;7315760;32;20122;-72
2022/04/22 07:30:22;;;;;;;22.13;17.48;;;10.70;99.90;;;;;;7314366;32;20107;-71
2022/04/22 07:34:23;;;;;;;21.00;17.17;;;10.70;99.90;;;;;;7312707;32;20128;-71
2022/04/22 07:38:25;;;;;;;20.95;17.00;;;10.80;99.90;;;;;;7316301;32;20202;-72
2022/04/22 07:42:29;;;;;;;20.08;15.93;;;11.10;99.90;;;;;;7312274;32;20182;-74
2022/04/22 07:46:48;;;;;;;19.90;15.32;;;11.10;99.90;;;;;;7317757;32;20463;-74
2022/04/22 07:50:50;;;;;;;15.95;13.62;;;11.40;99.90;;;;;;7317013;32;20762;-71
2022/04/22 07:54:52;;;;;;;15.80;12.80;;;11.60;99.90;;;;;;7316995;32;20198;-71
2022/04/22 07:58:56;;;;;;;15.43;11.73;;;11.60;99.90;;;;;;7291567;32;20130;-72
2022/04/22 08:02:57;;;;;;;13.43;11.15;;;11.70;99.90;;;;;;7302873;32;20119;-72
2022/04/22 08:06:59;;;;;;;13.30;11.23;;;12.00;99.90;;;;;;7315289;32;20114;-72
2022/04/22 08:11:21;;;;;;;12.73;10.27;;;12.00;99.90;;;;;;7312150;32;20215;-72
2022/04/22 08:15:22;;;;;;;13.55;10.48;;;11.90;99.90;;;;;;7317406;32;20202;-71
2022/04/22 08:19:24;;;;;;;14.48;11.00;;;11.80;99.90;;;;;;7317027;32;20531;-71
2022/04/22 08:23:26;;;;;;;14.57;11.35;;;11.70;99.90;;;;;;7315407;32;20614;-72
2022/04/22 08:27:28;;;;;;;13.38;11.25;;;11.60;99.90;;;;;;7316461;32;20146;-73
2022/04/22 08:31:30;;;;;;;10.95;9.73;;;11.60;99.90;;;;;;7312843;32;20206;-72
2022/04/22 08:35:32;;;;;;;13.55;9.95;;;11.70;99.90;;;;;;7317693;32;20151;-72
2022/04/22 08:39:33;;;;;;;14.23;10.30;;;11.70;99.90;;;;;;7306071;32;20596;-73
2022/04/22 08:43:37;;;;;;;12.37;9.80;;;11.80;99.90;;;;;;7314159;32;20156;-71
2022/04/22 08:52:01;;;;;;;12.82;9.82;;;11.70;99.90;;;;;;7310443;32;20126;-71
2022/04/22 08:56:05;;;;;;;14.00;9.32;;;12.00;99.90;;;;;;7313205;32;20234;-71
2022/04/22 09:00:08;;;;;;;11.10;8.75;;;12.00;99.90;;;;;;7311032;32;20181;-71
2022/04/22 09:04:09;;;;;;;10.85;9.00;;;12.10;99.90;;;;;;7313296;32;20320;-72
2022/04/22 09:08:12;;;;;;;10.10;8.73;;;12.10;99.90;;;;;;7305540;32;20475;-71
2022/04/22 09:12:14;;;;;;;10.23;8.32;;;12.10;99.90;;;;;;7307791;32;20130;-72
2022/04/22 09:16:22;;;;;;;10.70;8.27;;;12.00;99.90;;;;;;7312354;32;20141;-71
2022/04/22 09:20:30;;;;;;;10.90;7.97;;;12.10;99.90;;;;;;7310820;32;23382;-73
2022/04/22 09:24:31;;;;;;;;;;;12.20;99.90;;;;;;7314438;32;20120;-71
2022/04/22 09:28:34;;;;;;;11.60;8.27;;;12.30;99.90;;;;;;7313138;32;20600;-72
2022/04/22 09:32:39;;;;;;;11.00;8.13;;;12.60;99.90;;;;;;7320529;32;20115;-72
2022/04/22 09:45:36;;;;;;;8.52;6.90;;;13.20;99.90;;;;;;7307801;32;21620;-71
2022/04/22 09:49:45;;;;;;;11.95;8.13;;;13.30;99.90;;;;;;7315326;32;20202;-71
2022/04/22 09:53:57;;;;;;;8.57;7.37;;;13.30;99.90;;;;;;7316074;32;20633;-71
2022/04/22 09:57:59;;;;;;;9.27;7.80;;;13.10;99.90;;;;;;7321018;32;20111;-72
2022/04/22 10:02:01;;;;;;;9.88;8.48;;;13.50;99.90;;;;;;7318859;32;20120;-71
2022/04/22 10:06:10;;;;;;;9.60;7.93;;;13.80;99.90;;;;;;7321358;32;20237;-74
2022/04/22 10:10:14;;;;;;;10.85;8.05;;;14.00;99.90;;;;;;7311904;32;20234;-71
2022/04/22 10:14:25;;;;;;;10.75;8.38;;;14.10;99.90;;;;;;7318287;32;20708;-72
2022/04/22 10:18:27;;;;;;;11.43;9.35;;;14.60;99.90;;;;;;7313068;32;20115;-71
2022/04/22 10:22:33;;;;;;;10.77;9.48;;;15.00;99.90;;;;;;7301303;32;20286;-72
2022/04/22 10:26:34;;;;;;;10.43;9.27;;;15.50;99.90;;;;;;7317012;32;20103;-73
2022/04/22 10:30:40;;;;;;;10.73;9.63;;;15.90;99.90;;;;;;7312070;32;20318;-71
2022/04/22 10:34:43;;;;;;;11.02;9.82;;;15.00;99.90;;;;;;7317303;32;20115;-73
2022/04/22 10:38:46;;;;;;;11.75;10.15;;;14.90;99.90;;;;;;7316108;32;20136;-64
2022/04/22 10:42:52;;;;;;;13.05;10.38;;;14.80;99.90;;;;;;7317597;32;20563;-65
2022/04/22 10:51:14;;;;;;;9.80;8.80;;;15.80;99.90;;;;;;7309888;32;20162;-66
2022/04/22 10:55:20;;;;;;;11.35;9.52;;;15.70;99.90;;;;;;7306508;32;20136;-67
2022/04/22 10:59:24;;;;;;;11.43;8.73;;;16.20;99.90;;;;;;7312418;32;20542;-62
2022/04/22 11:03:31;;;;;;;12.15;8.63;;;15.80;99.90;;;;;;7311314;32;20179;-62
2022/04/22 11:07:57;;;;;;;11.05;8.65;;;15.90;99.90;;;;;;7315488;32;20594;-63
2022/04/22 11:11:59;;;;;;;9.13;6.65;;;16.40;99.90;;;;;;7313884;32;20462;-62
2022/04/22 11:16:19;;;;;;;8.23;7.30;;;16.30;99.90;;;;;;7306473;32;20163;-63
2022/04/22 11:20:21;;;;;;;8.13;6.75;;;15.90;99.90;;;;;;7303173;32;20143;-61
2022/04/22 11:24:24;;;;;;;9.45;7.35;;;16.00;99.90;;;;;;7312592;32;20221;-62
2022/04/22 11:28:26;;;;;;;7.70;6.53;;;16.00;99.90;;;;;;7313114;32;20111;-57
2022/04/22 11:32:30;;;;;;;8.77;5.62;;;16.50;99.90;;;;;;7307616;32;20569;-57
2022/04/22 11:36:45;;;;;;;10.90;5.68;;;16.70;99.90;;;;;;7316154;32;20111;-58
2022/04/22 11:40:49;;;;;;;6.95;5.35;;;16.40;99.90;;;;;;7315682;32;20119;-57
2022/04/22 11:45:15;;;;;;;7.30;5.28;;;16.10;99.90;;;;;;7314253;32;20112;-56
2022/04/22 11:49:17;;;;;;;7.20;5.57;;;15.90;99.90;;;;;;7315085;32;20233;-57
2022/04/22 11:53:20;;;;;;;6.18;5.18;;;16.30;99.90;;;;;;7314704;32;20158;-56
2022/04/22 11:57:22;;;;;;;8.52;5.15;;;16.00;99.90;;;;;;7315455;32;20762;-58
2022/04/22 12:05:54;;;;;;;11.15;7.65;;;16.40;99.90;;;;;;7310455;32;20129;-56
2022/04/22 12:10:00;;;;;;;11.00;8.20;;;16.50;99.90;;;;;;7312790;32;20151;-58
2022/04/22 12:14:02;;;;;;;8.27;7.25;;;16.30;99.90;;;;;;7315000;32;20756;-57
2022/04/22 12:18:03;;;;;;;12.37;8.73;;;16.30;99.90;;;;;;7314847;32;20129;-57
2022/04/22 12:22:06;;;;;;;11.30;8.50;;;15.90;99.90;;;;;;7319710;32;20248;-57
2022/04/22 12:26:15;;;;;;;10.02;8.70;;;15.90;99.90;;;;;;7318641;32;20131;-59
2022/04/22 12:30:16;;;;;;;9.93;7.57;;;15.80;99.90;;;;;;7311389;32;20112;-66
2022/04/22 12:34:34;;;;;;;12.90;8.98;;;15.70;99.90;;;;;;7316176;32;20103;-62
2022/04/22 12:38:37;;;;;;;12.60;9.68;;;15.90;99.90;;;;;;7313541;32;20118;-63
2022/04/22 12:42:39;;;;;;;11.07;8.95;;;15.60;99.90;;;;;;7316889;32;20506;-59
2022/04/22 12:55:25;;;;;;;10.63;8.30;;;15.70;99.90;;;;;;7315153;32;20130;-66
2022/04/22 12:59:44;;;;;;;10.32;7.97;;;15.70;99.90;;;;;;7314149;32;20125;-64
2022/04/22 13:03:46;;;;;;;8.45;7.12;;;16.10;99.90;;;;;;7314387;32;20340;-66
2022/04/22 13:07:52;;;;;;;14.38;9.13;;;16.00;99.90;;;;;;7314766;32;20177;-62
2022/04/22 13:11:55;;;;;;;11.30;8.45;;;15.80;99.90;;;;;;7307464;32;20217;-65
2022/04/22 13:15:59;;;;;;;11.57;8.85;;;15.60;99.90;;;;;;7313396;32;20108;-62
2022/04/22 13:20:01;;;;;;;11.93;8.77;;;15.80;99.90;;;;;;7314645;32;20489;-62
2022/04/22 13:24:02;;;;;;;11.05;8.15;;;15.70;99.90;;;;;;7313125;32;20490;-58
2022/04/22 13:28:04;;;;;;;11.73;8.30;;;15.70;99.90;;;;;;7320138;32;20217;-57
2022/04/22 13:32:12;;;;;;;8.88;7.45;;;15.80;99.90;;;;;;7317619;32;20104;-57
2022/04/22 13:36:15;;;;;;;7.37;6.68;;;16.10;99.90;;;;;;7319810;32;20501;-57
2022/04/22 13:40:17;;;;;;;8.85;6.90;;;16.20;99.90;;;;;;7317368;32;20103;-58
2022/04/22 13:52:21;;;;;;;10.65;7.43;;;15.70;99.90;;;;;;7318254;32;20320;-57
2022/04/22 13:53:01;;;;;;;10.10;7.82;;;14.90;99.90;;;;;;7319692;32;20151;-62
2022/04/22 13:57:03;;;;;;;10.15;6.53;;;15.00;99.90;;;;;;7318377;32;20246;-64
2022/04/22 14:01:05;;;;;;;10.40;7.37;;;15.50;99.90;;;;;;7317140;32;20214;-61
2022/04/22 14:05:07;;;;;;;11.40;7.82;;;15.50;99.90;;;;;;7322252;32;20170;-62
2022/04/22 14:09:09;;;;;;;8.32;7.00;;;15.80;99.90;;;;;;7319766;32;20459;-64
2022/04/22 14:13:13;;;;;;;9.35;7.70;;;15.50;99.90;;;;;;7321513;32;20134;-61
2022/04/22 14:17:15;;;;;;;8.35;7.20;;;15.50;99.90;;;;;;7321237;32;20139;-62
2022/04/22 14:21:16;;;;;;;8.57;7.30;;;15.50;99.90;;;;;;7323289;32;20185;-64
2022/04/22 14:25:24;;;;;;;7.50;6.70;;;15.80;99.90;;;;;;7318662;32;20161;-62
2022/04/22 14:29:27;;;;;;;7.37;5.75;;;15.70;99.90;;;;;;7314334;32;20137;-61
2022/04/22 14:33:29;;;;;;;11.77;6.57;;;15.90;99.90;;;;;;7317576;32;20186;-62
2022/04/22 14:37:33;;;;;;;7.75;6.95;;;15.80;99.90;;;;;;7319565;32;20230;-61
2022/04/22 14:41:35;;;;;;;9.60;7.07;;;15.70;99.90;;;;;;7328115;32;20225;-62
2022/04/22 14:45:37;;;;;;;11.38;7.97;;;15.90;99.90;;;;;;7320149;32;20744;-61
2022/04/22 14:49:39;;;;;;;8.45;7.65;;;15.90;99.90;;;;;;7322700;32;20195;-62
2022/04/22 14:53:40;;;;;;;12.00;9.32;;;15.90;99.90;;;;;;7326712;32;20130;-64
2022/04/22 14:57:43;;;;;;;11.77;8.80;;;15.70;99.90;;;;;;7320382;32;20256;-62
2022/04/22 15:01:44;;;;;;;9.02;8.07;;;15.70;99.90;;;;;;7318238;32;20237;-62
2022/04/22 15:05:47;;;;;;;11.30;10.10;;;15.70;99.90;;;;;;7315389;32;20525;-61
2022/04/22 15:09:49;;;;;;;11.98;9.27;;;15.40;99.90;;;;;;7315838;32;20253;-61
2022/04/22 15:13:51;;;;;;;11.80;9.35;;;15.50;99.90;;;;;;7316262;32;20110;-62
2022/04/22 15:26:35;;;;;;;12.85;10.80;;;15.70;99.90;;;;;;7319206;32;20139;-62
2022/04/22 15:31:02;;;;;;;14.65;12.27;;;15.50;99.90;;;;;;7316978;32;20174;-63
2022/04/22 15:35:05;;;;;;;13.68;11.32;;;15.50;99.90;;;;;;7307319;32;20354;-63
2022/04/22 15:39:07;;;;;;;12.07;10.85;;;15.50;99.90;;;;;;7306576;32;20520;-59
2022/04/22 15:43:11;;;;;;;11.35;9.93;;;15.60;99.90;;;;;;7323700;32;20215;-66
2022/04/22 15:47:13;;;;;;;14.15;11.10;;;15.60;99.90;;;;;;7321051;32;20497;-63
2022/04/22 15:51:22;;;;;;;18.40;11.07;;;15.50;99.90;;;;;;7323291;32;20690;-64
2022/04/22 15:55:24;;;;;;;13.18;11.00;;;15.60;99.90;;;;;;7318038;32;20109;-64
2022/04/22 15:59:26;;;;;;;12.82;10.10;;;15.60;99.90;;;;;;7313330;32;20535;-65
2022/04/22 16:03:28;;;;;;;14.55;11.30;;;15.60;99.90;;;;;;7313416;32;20115;-63
2022/04/22 16:07:29;;;;;;;12.93;10.95;;;15.70;99.90;;;;;;7311913;32;20150;-63
2022/04/22 16:15:52;;;;;;;17.37;12.13;;;15.60;99.90;;;;;;7309096;32;20190;-66
2022/04/22 16:19:58;;;;;;;15.00;11.88;;;15.40;99.90;;;;;;7306568;32;20135;-65
2022/04/22 16:23:59;;;;;;;17.58;13.18;;;15.40;99.90;;;;;;7314398;32;20558;-67
2022/04/22 16:28:01;;;;;;;30.00;25.12;;;15.30;99.90;;;;;;7315103;32;20115;-64
2022/04/22 16:32:03;;;;;;;20.62;17.08;;;15.20;99.90;;;;;;7308033;32;20221;-65
2022/04/22 16:36:05;;;;;;;21.12;17.12;;;15.30;99.90;;;;;;7293497;32;20646;-64
2022/04/22 16:40:09;;;;;;;14.23;11.88;;;15.20;99.90;;;;;;7320062;32;21113;-65
2022/04/22 16:44:10;;;;;;;17.75;12.02;;;15.20;99.90;;;;;;7307173;32;20171;-63
2022/04/22 16:48:12;;;;;;;12.20;10.88;;;15.10;99.90;;;;;;7319624;32;20718;-66
2022/04/22 16:52:14;;;;;;;13.20;11.65;;;15.00;99.90;;;;;;7319476;32;20198;-65
2022/04/22 16:56:16;;;;;;;13.15;11.75;;;15.00;99.90;;;;;;7318467;32;20206;-67
2022/04/22 17:00:18;;;;;;;14.65;12.82;;;14.90;99.90;;;;;;7321326;32;20145;-65
2022/04/22 17:04:20;;;;;;;13.62;11.55;;;15.00;99.90;;;;;;7302529;32;20131;-63
2022/04/22 17:08:23;;;;;;;13.68;11.82;;;15.00;99.90;;;;;;7321311;32;20488;-65
2022/04/22 17:12:24;;;;;;;16.75;11.98;;;15.10;99.90;;;;;;7314779;32;20154;-65
2022/04/22 17:25:09;;;;;;;15.43;12.37;;;15.00;99.90;;;;;;7321689;32;20168;-65
2022/04/22 17:29:11;;;;;;;13.35;11.25;;;14.90;99.90;;;;;;7322656;32;20571;-64
2022/04/22 17:33:12;;;;;;;13.98;11.48;;;14.80;99.90;;;;;;7322494;32;20543;-62
2022/04/22 17:37:14;;;;;;;15.00;11.68;;;14.70;99.90;;;;;;7322935;32;20134;-64
2022/04/22 17:41:16;;;;;;;13.70;11.43;;;14.60;99.90;;;;;;7330405;32;20605;-66
2022/04/22 17:45:18;;;;;;;15.05;10.60;;;14.60;99.90;;;;;;7318046;32;20167;-65
2022/04/22 17:49:22;;;;;;;14.57;10.93;;;14.60;99.90;;;;;;7322716;32;20233;-65
2022/04/22 17:53:24;;;;;;;13.88;11.68;;;14.40;99.90;;;;;;7323640;32;20526;-64
2022/04/22 17:57:27;;;;;;;15.60;10.65;;;14.40;99.90;;;;;;7323896;32;20254;-65
2022/04/22 18:01:29;;;;;;;14.80;10.57;;;14.30;99.90;;;;;;7310424;32;20133;-65
2022/04/22 18:05:31;;;;;;;14.60;10.13;;;14.20;99.90;;;;;;7323202;32;20135;-66
2022/04/22 18:09:33;;;;;;;11.63;9.85;;;14.10;99.90;;;;;;7322096;32;20635;-64
2022/04/22 18:13:34;;;;;;;13.82;10.43;;;14.00;99.90;;;;;;7314441;32;20460;-64
2022/04/22 18:17:36;;;;;;;13.18;9.98;;;13.90;99.90;;;;;;7287459;32;20350;-62
2022/04/22 18:21:41;;;;;;;12.35;9.48;;;13.80;99.90;;;;;;7308833;32;20115;-65
2022/04/22 18:25:43;;;;;;;11.52;9.25;;;13.60;99.90;;;;;;7306483;32;20210;-62
2022/04/22 18:29:46;;;;;;;12.23;8.82;;;13.60;99.90;;;;;;7318990;32;20125;-64
2022/04/22 18:33:48;;;;;;;11.27;8.60;;;13.60;99.90;;;;;;7307962;32;20158;-64
2022/04/22 18:37:50;;;;;;;12.98;9.45;;;13.50;99.90;;;;;;7323481;32;20742;-64
2022/04/22 18:41:52;;;;;;;11.85;8.88;;;13.40;99.90;;;;;;7320675;32;20126;-65
2022/04/22 18:45:54;;;;;;;11.98;9.48;;;13.30;99.90;;;;;;7318716;32;20154;-66
2022/04/22 18:49:55;;;;;;;13.43;9.73;;;13.30;99.90;;;;;;7317853;32;20188;-66
2022/04/22 18:53:57;;;;;;;14.18;9.82;;;13.10;99.90;;;;;;7327377;32;20228;-65
2022/04/22 18:57:59;;;;;;;10.15;8.90;;;13.10;99.90;;;;;;7327870;32;20146;-64
2022/04/22 19:02:01;;;;;;;13.75;9.85;;;13.00;99.90;;;;;;7320110;32;20099;-63
2022/04/22 19:06:07;;;;;;;11.65;9.27;;;12.90;99.90;;;;;;7314676;32;20610;-64
2022/04/22 19:10:09;;;;;;;11.65;9.55;;;12.90;99.90;;;;;;7308524;32;20239;-64
2022/04/22 19:14:11;;;;;;;12.30;9.52;;;12.70;99.90;;;;;;7329740;32;20231;-64
2022/04/22 19:18:13;;;;;;;10.43;9.32;;;12.70;99.90;;;;;;7323830;32;20107;-66
2022/04/22 19:22:14;;;;;;;12.10;9.65;;;12.70;99.90;;;;;;7317066;32;20220;-63
2022/04/22 19:26:16;;;;;;;11.73;9.75;;;12.60;99.90;;;;;;7322418;32;20129;-62
2022/04/22 19:30:18;;;;;;;11.23;9.77;;;12.50;99.90;;;;;;7321257;32;20129;-64
2022/04/22 19:34:20;;;;;;;13.10;9.98;;;12.50;99.90;;;;;;7320705;32;20190;-64
2022/04/22 19:42:42;;;;;;;12.80;10.90;;;12.40;99.90;;;;;;7308268;32;20117;-61
2022/04/22 19:46:44;;;;;;;12.02;9.80;;;12.40;99.90;;;;;;7322175;32;20108;-61
2022/04/22 19:50:46;;;;;;;11.73;9.60;;;12.30;99.90;;;;;;7295342;32;20256;-62
2022/04/22 19:54:48;;;;;;;15.35;12.75;;;12.30;99.90;;;;;;7308410;32;20174;-61
2022/04/22 19:58:52;;;;;;;12.68;10.40;;;12.20;99.90;;;;;;7308325;32;20141;-62
2022/04/22 20:02:53;;;;;;;11.15;9.93;;;12.20;99.90;;;;;;7308250;32;20818;-61
2022/04/22 20:06:59;;;;;;;12.85;9.85;;;12.10;99.90;;;;;;7296840;32;20122;-61
2022/04/22 20:11:01;;;;;;;13.45;9.57;;;12.10;99.90;;;;;;7321128;32;20124;-61
2022/04/22 20:15:03;;;;;;;12.10;10.40;;;12.00;99.90;;;;;;7300696;32;20096;-62
2022/04/22 20:19:05;;;;;;;11.50;10.20;;;12.00;99.90;;;;;;7304622;32;20545;-61
2022/04/22 20:23:07;;;;;;;12.35;9.70;;;12.00;99.90;;;;;;7307389;32;20537;-61
2022/04/22 20:27:08;;;;;;;12.75;9.75;;;12.00;99.90;;;;;;7308066;32;20408;-61
2022/04/22 20:31:12;;;;;;;11.48;10.27;;;11.90;99.90;;;;;;7307290;32;20549;-62
2022/04/22 20:43:58;;;;;;;11.52;10.25;;;11.70;99.90;;;;;;7319991;32;20119;-61
2022/04/22 20:48:00;;;;;;;12.95;10.15;;;11.70;99.90;;;;;;7316020;32;20099;-61
2022/04/22 20:52:02;;;;;;;14.02;10.38;;;11.70;99.90;;;;;;7320621;32;20103;-65
2022/04/22 20:56:05;;;;;;;11.38;9.85;;;11.70;99.90;;;;;;7322944;32;20288;-62
2022/04/22 21:00:08;;;;;;;13.40;10.82;;;11.70;99.90;;;;;;7315647;32;20256;-61
2022/04/22 21:04:09;;;;;;;14.93;10.50;;;11.50;99.90;;;;;;7318967;32;20226;-63
2022/04/22 21:08:11;;;;;;;12.88;10.48;;;11.50;99.90;;;;;;7319032;32;20115;-63
2022/04/22 21:12:13;;;;;;;12.20;10.07;;;11.40;99.90;;;;;;7320192;32;20130;-62
2022/04/22 21:16:15;;;;;;;15.75;12.07;;;11.50;99.90;;;;;;7317798;32;20142;-63
2022/04/22 21:20:18;;;;;;;16.25;12.63;;;11.40;99.90;;;;;;7314493;32;20206;-62
2022/04/22 21:24:21;;;;;;;14.77;12.60;;;11.30;99.90;;;;;;7315906;32;20103;-61
2022/04/22 21:28:22;;;;;;;14.63;12.02;;;11.30;99.90;;;;;;7317468;32;20135;-65
2022/04/22 21:32:29;;;;;;;18.90;13.40;;;11.30;99.90;;;;;;7307337;32;20203;-63
2022/04/22 21:36:30;;;;;;;15.45;13.52;;;11.20;99.90;;;;;;7313723;32;20242;-62
2022/04/22 21:40:32;;;;;;;22.87;17.98;;;11.10;99.90;;;;;;7315253;32;20834;-63
2022/04/22 21:44:34;;;;;;;17.42;14.30;;;11.10;99.90;;;;;;7318355;32;20115;-62
2022/04/22 21:48:36;;;;;;;16.33;13.95;;;11.00;99.90;;;;;;7320197;32;20169;-62
2022/04/22 21:52:38;;;;;;;20.02;14.98;;;11.10;99.90;;;;;;7324170;32;20199;-61
2022/04/22 21:56:40;;;;;;;16.55;14.35;;;11.00;99.90;;;;;;7323212;32;20755;-61
2022/04/22 22:00:53;;;;;;;17.65;14.73;;;11.00;99.90;;;;;;7321892;32;20107;-61
2022/04/22 22:04:54;;;;;;;17.27;14.65;;;11.00;99.90;;;;;;7321613;32;20501;-61
2022/04/22 22:08:56;;;;;;;17.10;15.15;;;10.90;99.90;;;;;;7314837;32;20129;-62
2022/04/22 22:12:58;;;;;;;23.33;15.98;;;10.80;99.90;;;;;;7312638;32;20566;-62
2022/04/22 22:17:01;;;;;;;23.85;15.95;;;10.80;99.90;;;;;;7323842;32;20122;-60
2022/04/22 22:21:05;;;;;;;17.73;15.30;;;10.70;99.90;;;;;;7317386;32;20140;-62
2022/04/22 22:25:07;;;;;;;19.42;15.35;;;10.70;99.90;;;;;;7321807;32;20136;-61
2022/04/22 22:29:08;;;;;;;17.98;16.05;;;10.60;99.90;;;;;;7324305;32;20234;-60
2022/04/22 22:33:11;;;;;;;19.80;16.33;;;10.60;99.90;;;;;;7312444;32;20904;-60
2022/04/22 22:37:13;;;;;;;18.58;16.30;;;10.50;99.90;;;;;;7323803;32;20163;-60
2022/04/22 22:41:17;;;;;;;19.62;15.60;;;10.50;99.90;;;;;;7322769;32;20209;-61
2022/04/22 22:45:18;;;;;;;20.37;16.50;;;10.50;99.90;;;;;;7316184;32;20292;-61